KFAF/FAF METAR and TAF weather

Enter ICAO airport designator
Station Type Date Time Source
KFAF METAR 2024/06/14 02:55 UTC NOAA

KFAF 140255Z 18007KT 10SM CLR 26/19 A2998 RMK AO2A SLP156 T02630189 53005 $


Station Type Date Time Source
KFAF Decoded METAR 2024/06/14 02:55 UTC NOAA

Fort Eustis / Felker, VA, United States (KFAF) 37-08N 076-37W
Jun 13, 2024 - 10:55 PM EDT / 2024.06.14 0255 UTC
Wind: from the S (180 degrees) at 8 MPH (7 KT):0
Visibility: 10 mile(s):0
Sky conditions: clear
Temperature: 79.3 F (26.3 C)
Dew Point: 66.0 F (18.9 C)
Relative Humidity: 63%
Pressure (altimeter): 29.98 in. Hg (1015 hPa)
Pressure tendency: 0.01 inches (0.5 hPa) higher than three hours ago
ob: KFAF 140255Z 18007KT 10SM CLR 26/19 A2998 RMK AO2A SLP156 T02630189 53005
cycle: 3

Station Type Date Time Source
KFAF TAF 2024/06/14 02:54 UTC NOAA